Aeroporto :
LOGIN :

Iscrizione | Disclaimer

   EN    FR    IT 

 










Sommario :    VFR   VFR Marginale   IFR   IFR Intensivo   IFR Molto Intensivo
Visibilità : 
Base nubi : 
>= 8 km
>= 3000ft
5 / 8 km
1000 / 3000 ft
1500m / 5 km
500 / 1000 ft
800 / 1500m
200 / 500 ft
< 800m
< 200 ft
Simboli :   Temporali  Nebbia  Neve Forte  Precipitazioni Forti  Vento > 20 kt
SIGMETs :   Varie  Temporali  Ghiacco  Turbolenza  Onda orograficha  Ceneri Vulcaniche






- Altitudine del aeroporto : 22 ft
- Codice IATA : SKG


LGTS - Thessaloniki

ULTIMO METAR :
  • 032020Z VRB02KT 9999 DZ FEW010 BKN025 09/08 Q1016 NOSIG

METARs OBSOLETI :
  • 031950Z VRB02KT 9999 DZ FEW010 BKN025 10/08 Q1016 NOSIG
  • 031920Z VRB02KT 9999 DZ FEW010 BKN025 10/08 Q1016 NOSIG
  • 031850Z VRB03KT 9999 DZ FEW010 BKN025 10/07 Q1016 NOSIG
  • 031820Z VRB03KT 9999 DZ FEW010 BKN025 10/07 Q1016 NOSIG
  • 031750Z VRB02KT 9999 FEW010 BKN025 11/07 Q1015 NOSIG

TAF TAF LGTS
Valido dal 03 a 18 ore il 04 a 18 ore UTC


031700Z 0318/0418 VRB03KT 9999 FEW010 BKN025
TEMPO 0321/0418 7000 RA
BECMG 0406/0408 34012KT
PROB40
TEMPO 0409/0418 4000 SHRA SCT010 FEW018TCU BKN025
PROB30
TEMPO 0409/0418 3000 TSRA FEW018CB BKN020
TEMPO 0409/0418 34015G25KT



MetMap, La meteo Aeronautica in un colpo d'occhio ! - Copyright ORBIFLY Dicembre 2007 - Disclaimer

ORBIFLY MET'MAP TEAM :

Programmazione e sviluppo : Alexandra Zaïnal
Concezione : Baudouin d'Aumeries
Aiuto per la programmazione : Marc-Olivier Méhu
Supporto tecnico e logistico : Manuel Goepfert
Aiuto per la traduzione : Arnaldo La Scala

Contatto : metmap@orbifly.com




FONTI E CREDITI :

   NOAA